sensor_id;sensor_type;location;lat;lon;timestamp;pressure;altitude;pressure_sealevel;temperature;humidity
37848;BME280;23688;33.130;-117.188;2023-04-16T00:01:30;99768.75;;;17.82;68.99
37848;BME280;23688;33.130;-117.188;2023-04-16T00:03:56;99772.19;;;17.78;69.12
37848;BME280;23688;33.130;-117.188;2023-04-16T00:06:22;99751.00;;;17.69;65.56
37848;BME280;23688;33.130;-117.188;2023-04-16T00:08:49;99766.91;;;17.76;70.67
37848;BME280;23688;33.130;-117.188;2023-04-16T00:11:16;99752.41;;;17.99;67.88
37848;BME280;23688;33.130;-117.188;2023-04-16T00:13:43;99754.22;;;18.03;66.49
37848;BME280;23688;33.130;-117.188;2023-04-16T00:16:09;99748.06;;;18.01;68.58
37848;BME280;23688;33.130;-117.188;2023-04-16T00:18:37;99758.88;;;18.22;67.49
37848;BME280;23688;33.130;-117.188;2023-04-16T00:21:04;99755.81;;;17.94;66.01
37848;BME280;23688;33.130;-117.188;2023-04-16T00:23:30;99763.75;;;17.96;67.78
37848;BME280;23688;33.130;-117.188;2023-04-16T00:25:56;99757.84;;;17.59;69.00
37848;BME280;23688;33.130;-117.188;2023-04-16T00:28:25;99750.88;;;17.61;69.28
37848;BME280;23688;33.130;-117.188;2023-04-16T00:30:52;99759.13;;;17.81;68.08
37848;BME280;23688;33.130;-117.188;2023-04-16T00:33:19;99761.94;;;17.43;68.76
37848;BME280;23688;33.130;-117.188;2023-04-16T00:35:46;99768.19;;;17.48;70.34
37848;BME280;23688;33.130;-117.188;2023-04-16T00:38:13;99770.41;;;17.28;71.00
37848;BME280;23688;33.130;-117.188;2023-04-16T00:40:39;99775.19;;;17.02;71.02
37848;BME280;23688;33.130;-117.188;2023-04-16T00:43:05;99777.47;;;16.85;70.74
37848;BME280;23688;33.130;-117.188;2023-04-16T00:45:32;99782.28;;;16.67;71.44
37848;BME280;23688;33.130;-117.188;2023-04-16T00:47:59;99780.88;;;16.43;73.81
37848;BME280;23688;33.130;-117.188;2023-04-16T00:50:26;99776.34;;;16.35;73.70
37848;BME280;23688;33.130;-117.188;2023-04-16T00:52:53;99775.53;;;16.37;73.35
37848;BME280;23688;33.130;-117.188;2023-04-16T00:55:19;99776.72;;;16.14;74.10
37848;BME280;23688;33.130;-117.188;2023-04-16T00:57:46;99780.25;;;16.16;75.69
37848;BME280;23688;33.130;-117.188;2023-04-16T01:00:12;99784.47;;;16.09;72.55
37848;BME280;23688;33.130;-117.188;2023-04-16T01:02:40;99781.44;;;15.92;74.38
37848;BME280;23688;33.130;-117.188;2023-04-16T01:05:06;99785.22;;;16.03;76.93
37848;BME280;23688;33.130;-117.188;2023-04-16T01:07:33;99793.38;;;16.16;76.04
37848;BME280;23688;33.130;-117.188;2023-04-16T01:09:59;99780.00;;;16.41;79.46
37848;BME280;23688;33.130;-117.188;2023-04-16T01:12:25;99785.44;;;16.13;75.97
37848;BME280;23688;33.130;-117.188;2023-04-16T01:14:52;99780.97;;;16.09;77.59
37848;BME280;23688;33.130;-117.188;2023-04-16T01:17:18;99796.13;;;15.86;78.11
37848;BME280;23688;33.130;-117.188;2023-04-16T01:19:45;99784.28;;;15.67;77.78
37848;BME280;23688;33.130;-117.188;2023-04-16T01:22:11;99765.00;;;15.63;78.38
37848;BME280;23688;33.130;-117.188;2023-04-16T01:24:37;99784.56;;;15.77;77.90
37848;BME280;23688;33.130;-117.188;2023-04-16T01:27:04;99785.31;;;15.72;80.90
37848;BME280;23688;33.130;-117.188;2023-04-16T01:29:31;99793.16;;;15.72;81.58
37848;BME280;23688;33.130;-117.188;2023-04-16T01:31:57;99778.47;;;15.44;81.14
37848;BME280;23688;33.130;-117.188;2023-04-16T01:34:23;99787.91;;;15.38;82.66
37848;BME280;23688;33.130;-117.188;2023-04-16T01:36:51;99797.53;;;15.08;83.46
37848;BME280;23688;33.130;-117.188;2023-04-16T01:39:18;99800.22;;;15.11;84.33
37848;BME280;23688;33.130;-117.188;2023-04-16T01:41:46;99787.81;;;15.02;86.55
37848;BME280;23688;33.130;-117.188;2023-04-16T01:44:12;99798.31;;;14.73;88.62
37848;BME280;23688;33.130;-117.188;2023-04-16T01:46:38;99809.34;;;14.65;91.42
37848;BME280;23688;33.130;-117.188;2023-04-16T01:49:05;99803.59;;;14.48;93.18
37848;BME280;23688;33.130;-117.188;2023-04-16T01:51:32;99797.34;;;14.43;94.08
37848;BME280;23688;33.130;-117.188;2023-04-16T01:53:58;99799.22;;;14.47;94.16
37848;BME280;23688;33.130;-117.188;2023-04-16T01:56:25;99792.69;;;14.05;96.27
37848;BME280;23688;33.130;-117.188;2023-04-16T01:58:51;99787.91;;;13.92;98.15
37848;BME280;23688;33.130;-117.188;2023-04-16T02:01:19;99803.84;;;14.28;97.35
37848;BME280;23688;33.130;-117.188;2023-04-16T02:03:46;99815.38;;;14.35;96.94
37848;BME280;23688;33.130;-117.188;2023-04-16T02:06:13;99817.34;;;14.42;96.42
37848;BME280;23688;33.130;-117.188;2023-04-16T02:08:40;99810.50;;;14.19;96.88
37848;BME280;23688;33.130;-117.188;2023-04-16T02:11:07;99818.47;;;14.22;97.12
37848;BME280;23688;33.130;-117.188;2023-04-16T02:13:33;99819.91;;;13.86;99.55
37848;BME280;23688;33.130;-117.188;2023-04-16T02:16:00;99822.66;;;13.64;100.00
37848;BME280;23688;33.130;-117.188;2023-04-16T02:18:27;99822.34;;;13.31;100.00
37848;BME280;23688;33.130;-117.188;2023-04-16T02:20:53;99822.94;;;13.23;100.00
37848;BME280;23688;33.130;-117.188;2023-04-16T02:23:22;99818.47;;;13.19;100.00
37848;BME280;23688;33.130;-117.188;2023-04-16T02:25:48;99827.75;;;13.13;100.00
37848;BME280;23688;33.130;-117.188;2023-04-16T02:28:16;99820.94;;;13.16;100.00
37848;BME280;23688;33.130;-117.188;2023-04-16T02:30:42;99821.25;;;13.25;100.00
37848;BME280;23688;33.130;-117.188;2023-04-16T02:33:10;99821.84;;;13.41;100.00
37848;BME280;23688;33.130;-117.188;2023-04-16T02:35:38;99835.16;;;13.24;100.00
37848;BME280;23688;33.130;-117.188;2023-04-16T02:38:05;99831.97;;;13.32;100.00
37848;BME280;23688;33.130;-117.188;2023-04-16T02:40:31;99822.56;;;13.13;100.00
37848;BME280;23688;33.130;-117.188;2023-04-16T02:42:59;99823.09;;;13.04;100.00
37848;BME280;23688;33.130;-117.188;2023-04-16T02:45:26;99838.47;;;13.20;100.00
37848;BME280;23688;33.130;-117.188;2023-04-16T02:47:52;99845.19;;;13.38;100.00
37848;BME280;23688;33.130;-117.188;2023-04-16T02:50:18;99849.63;;;13.40;100.00
37848;BME280;23688;33.130;-117.188;2023-04-16T02:52:45;99849.06;;;13.25;100.00
37848;BME280;23688;33.130;-117.188;2023-04-16T02:55:11;99858.69;;;13.03;100.00
37848;BME280;23688;33.130;-117.188;2023-04-16T02:57:37;99855.56;;;12.90;100.00
37848;BME280;23688;33.130;-117.188;2023-04-16T03:00:04;99863.03;;;13.03;100.00
37848;BME280;23688;33.130;-117.188;2023-04-16T03:02:31;99859.38;;;12.98;100.00
37848;BME280;23688;33.130;-117.188;2023-04-16T03:04:57;99865.53;;;13.00;100.00
37848;BME280;23688;33.130;-117.188;2023-04-16T03:07:23;99868.03;;;13.21;100.00
37848;BME280;23688;33.130;-117.188;2023-04-16T03:09:50;99873.00;;;13.37;100.00
37848;BME280;23688;33.130;-117.188;2023-04-16T03:12:16;99887.38;;;13.50;100.00
37848;BME280;23688;33.130;-117.188;2023-04-16T03:14:44;99870.66;;;13.45;100.00
37848;BME280;23688;33.130;-117.188;2023-04-16T03:17:11;99876.72;;;13.68;100.00
37848;BME280;23688;33.130;-117.188;2023-04-16T03:19:37;99896.22;;;13.79;100.00
37848;BME280;23688;33.130;-117.188;2023-04-16T03:22:03;99893.84;;;13.85;100.00
37848;BME280;23688;33.130;-117.188;2023-04-16T03:24:30;99889.34;;;13.81;100.00
37848;BME280;23688;33.130;-117.188;2023-04-16T03:26:57;99898.13;;;13.83;100.00
37848;BME280;23688;33.130;-117.188;2023-04-16T03:29:24;99898.94;;;13.82;100.00
37848;BME280;23688;33.130;-117.188;2023-04-16T03:31:51;99909.53;;;13.87;100.00
37848;BME280;23688;33.130;-117.188;2023-04-16T03:34:18;99906.84;;;13.84;100.00
37848;BME280;23688;33.130;-117.188;2023-04-16T03:36:46;99915.59;;;13.86;100.00
37848;BME280;23688;33.130;-117.188;2023-04-16T03:39:12;99913.78;;;13.83;100.00
37848;BME280;23688;33.130;-117.188;2023-04-16T03:41:39;99918.22;;;13.86;100.00
37848;BME280;23688;33.130;-117.188;2023-04-16T03:44:05;99924.16;;;13.82;100.00
37848;BME280;23688;33.130;-117.188;2023-04-16T03:46:31;99905.81;;;13.55;100.00
37848;BME280;23688;33.130;-117.188;2023-04-16T03:48:57;99929.09;;;13.50;100.00
37848;BME280;23688;33.130;-117.188;2023-04-16T03:51:24;99927.63;;;13.57;100.00
37848;BME280;23688;33.130;-117.188;2023-04-16T03:53:51;99917.91;;;13.53;100.00
37848;BME280;23688;33.130;-117.188;2023-04-16T03:56:18;99931.09;;;13.57;100.00
37848;BME280;23688;33.130;-117.188;2023-04-16T03:58:44;99914.34;;;13.51;100.00
37848;BME280;23688;33.130;-117.188;2023-04-16T04:01:10;99927.69;;;13.58;100.00
37848;BME280;23688;33.130;-117.188;2023-04-16T04:03:37;99939.03;;;13.60;100.00
37848;BME280;23688;33.130;-117.188;2023-04-16T04:06:07;99957.53;;;13.66;100.00
37848;BME280;23688;33.130;-117.188;2023-04-16T04:08:35;99956.81;;;13.70;100.00
37848;BME280;23688;33.130;-117.188;2023-04-16T04:11:01;99957.75;;;13.73;100.00
37848;BME280;23688;33.130;-117.188;2023-04-16T04:13:27;99960.31;;;13.71;100.00
37848;BME280;23688;33.130;-117.188;2023-04-16T04:15:54;99955.81;;;13.67;100.00
37848;BME280;23688;33.130;-117.188;2023-04-16T04:18:22;99961.09;;;13.68;100.00
37848;BME280;23688;33.130;-117.188;2023-04-16T04:20:48;99967.13;;;13.67;100.00
37848;BME280;23688;33.130;-117.188;2023-04-16T04:23:15;99958.06;;;13.58;100.00
37848;BME280;23688;33.130;-117.188;2023-04-16T04:25:41;99982.41;;;13.57;100.00
37848;BME280;23688;33.130;-117.188;2023-04-16T04:28:07;99943.16;;;13.30;100.00
37848;BME280;23688;33.130;-117.188;2023-04-16T04:30:34;99980.94;;;13.41;100.00
37848;BME280;23688;33.130;-117.188;2023-04-16T04:33:04;99976.38;;;13.35;100.00
37848;BME280;23688;33.130;-117.188;2023-04-16T04:35:31;99976.16;;;13.29;100.00
37848;BME280;23688;33.130;-117.188;2023-04-16T04:38:01;99964.47;;;13.19;100.00
37848;BME280;23688;33.130;-117.188;2023-04-16T04:40:27;99975.94;;;13.24;100.00
37848;BME280;23688;33.130;-117.188;2023-04-16T04:42:53;99964.09;;;13.10;100.00
37848;BME280;23688;33.130;-117.188;2023-04-16T04:45:19;99974.56;;;13.12;100.00
37848;BME280;23688;33.130;-117.188;2023-04-16T04:47:47;99966.63;;;13.09;100.00
37848;BME280;23688;33.130;-117.188;2023-04-16T04:50:14;99974.41;;;13.07;100.00
37848;BME280;23688;33.130;-117.188;2023-04-16T04:52:40;99972.50;;;13.03;100.00
37848;BME280;23688;33.130;-117.188;2023-04-16T04:55:07;99982.16;;;13.05;100.00
37848;BME280;23688;33.130;-117.188;2023-04-16T04:57:33;99981.41;;;13.08;100.00
37848;BME280;23688;33.130;-117.188;2023-04-16T04:59:59;99971.47;;;12.99;100.00
37848;BME280;23688;33.130;-117.188;2023-04-16T05:02:28;99979.66;;;13.09;100.00
37848;BME280;23688;33.130;-117.188;2023-04-16T05:04:55;99988.03;;;13.22;100.00
37848;BME280;23688;33.130;-117.188;2023-04-16T05:07:21;99990.63;;;13.22;100.00
37848;BME280;23688;33.130;-117.188;2023-04-16T05:09:47;99986.41;;;13.26;100.00
37848;BME280;23688;33.130;-117.188;2023-04-16T05:12:14;99983.81;;;13.26;100.00
37848;BME280;23688;33.130;-117.188;2023-04-16T05:14:40;99990.13;;;13.31;100.00
37848;BME280;23688;33.130;-117.188;2023-04-16T05:17:09;99985.81;;;13.32;100.00
37848;BME280;23688;33.130;-117.188;2023-04-16T05:19:36;99987.66;;;13.34;100.00
37848;BME280;23688;33.130;-117.188;2023-04-16T05:22:04;99993.06;;;13.39;100.00
37848;BME280;23688;33.130;-117.188;2023-04-16T05:24:31;99985.22;;;13.39;100.00
37848;BME280;23688;33.130;-117.188;2023-04-16T05:26:57;99992.38;;;13.44;100.00
37848;BME280;23688;33.130;-117.188;2023-04-16T05:29:30;99980.13;;;13.42;100.00
37848;BME280;23688;33.130;-117.188;2023-04-16T05:31:57;99987.06;;;13.41;100.00
37848;BME280;23688;33.130;-117.188;2023-04-16T05:34:27;99975.97;;;13.47;100.00
37848;BME280;23688;33.130;-117.188;2023-04-16T05:36:54;99975.06;;;13.46;100.00
37848;BME280;23688;33.130;-117.188;2023-04-16T05:39:20;99976.06;;;13.50;100.00
37848;BME280;23688;33.130;-117.188;2023-04-16T05:41:46;99968.66;;;13.38;100.00
37848;BME280;23688;33.130;-117.188;2023-04-16T05:44:13;99963.72;;;13.46;100.00
37848;BME280;23688;33.130;-117.188;2023-04-16T05:46:40;99965.72;;;13.53;100.00
37848;BME280;23688;33.130;-117.188;2023-04-16T05:49:06;99947.44;;;13.52;100.00
37848;BME280;23688;33.130;-117.188;2023-04-16T05:51:32;99952.09;;;13.60;100.00
37848;BME280;23688;33.130;-117.188;2023-04-16T05:53:59;99947.00;;;13.63;100.00
37848;BME280;23688;33.130;-117.188;2023-04-16T05:56:26;99946.16;;;13.64;100.00
37848;BME280;23688;33.130;-117.188;2023-04-16T05:58:52;99945.31;;;13.65;100.00
37848;BME280;23688;33.130;-117.188;2023-04-16T06:01:20;99941.72;;;13.62;100.00
37848;BME280;23688;33.130;-117.188;2023-04-16T06:03:46;99943.38;;;13.60;100.00
37848;BME280;23688;33.130;-117.188;2023-04-16T06:06:12;99932.78;;;13.55;100.00
37848;BME280;23688;33.130;-117.188;2023-04-16T06:08:39;99941.53;;;13.57;100.00
37848;BME280;23688;33.130;-117.188;2023-04-16T06:11:05;99939.78;;;13.56;100.00
37848;BME280;23688;33.130;-117.188;2023-04-16T06:13:31;99939.72;;;13.55;100.00
37848;BME280;23688;33.130;-117.188;2023-04-16T06:15:58;99944.06;;;13.54;100.00
37848;BME280;23688;33.130;-117.188;2023-04-16T06:18:24;99930.91;;;13.51;100.00
37848;BME280;23688;33.130;-117.188;2023-04-16T06:20:50;99931.81;;;13.53;100.00
37848;BME280;23688;33.130;-117.188;2023-04-16T06:23:17;99935.19;;;13.51;100.00
37848;BME280;23688;33.130;-117.188;2023-04-16T06:25:43;99932.31;;;13.43;100.00
37848;BME280;23688;33.130;-117.188;2023-04-16T06:28:10;99926.75;;;13.34;100.00
37848;BME280;23688;33.130;-117.188;2023-04-16T06:30:36;99926.91;;;13.37;100.00
37848;BME280;23688;33.130;-117.188;2023-04-16T06:33:02;99924.13;;;13.32;100.00
37848;BME280;23688;33.130;-117.188;2023-04-16T06:35:29;99924.75;;;13.26;100.00
37848;BME280;23688;33.130;-117.188;2023-04-16T06:37:55;99922.84;;;13.22;100.00
37848;BME280;23688;33.130;-117.188;2023-04-16T06:40:21;99913.91;;;13.16;100.00
37848;BME280;23688;33.130;-117.188;2023-04-16T06:42:48;99920.94;;;13.18;100.00
37848;BME280;23688;33.130;-117.188;2023-04-16T06:45:14;99921.53;;;13.11;100.00
37848;BME280;23688;33.130;-117.188;2023-04-16T06:47:40;99926.16;;;13.18;100.00
37848;BME280;23688;33.130;-117.188;2023-04-16T06:50:09;99923.50;;;13.17;100.00
37848;BME280;23688;33.130;-117.188;2023-04-16T06:52:35;99915.53;;;13.12;100.00
37848;BME280;23688;33.130;-117.188;2023-04-16T06:55:02;99918.06;;;13.11;100.00
37848;BME280;23688;33.130;-117.188;2023-04-16T06:57:30;99914.50;;;13.09;100.00
37848;BME280;23688;33.130;-117.188;2023-04-16T06:59:57;99920.38;;;13.03;100.00
37848;BME280;23688;33.130;-117.188;2023-04-16T07:02:23;99923.66;;;12.97;100.00
37848;BME280;23688;33.130;-117.188;2023-04-16T07:04:49;99926.94;;;12.93;100.00
37848;BME280;23688;33.130;-117.188;2023-04-16T07:07:17;99925.94;;;12.90;100.00
37848;BME280;23688;33.130;-117.188;2023-04-16T07:09:43;99919.53;;;12.81;100.00
37848;BME280;23688;33.130;-117.188;2023-04-16T07:12:09;99929.00;;;12.79;100.00
37848;BME280;23688;33.130;-117.188;2023-04-16T07:14:37;99922.63;;;12.71;100.00
37848;BME280;23688;33.130;-117.188;2023-04-16T07:17:03;99927.94;;;12.74;100.00
37848;BME280;23688;33.130;-117.188;2023-04-16T07:19:29;99919.06;;;12.69;100.00
37848;BME280;23688;33.130;-117.188;2023-04-16T07:22:00;99926.03;;;12.70;100.00
37848;BME280;23688;33.130;-117.188;2023-04-16T07:24:26;99933.75;;;12.67;100.00
37848;BME280;23688;33.130;-117.188;2023-04-16T07:26:53;99934.56;;;12.66;100.00
37848;BME280;23688;33.130;-117.188;2023-04-16T07:29:19;99921.38;;;12.61;100.00
37848;BME280;23688;33.130;-117.188;2023-04-16T07:31:46;99915.31;;;12.62;100.00
37848;BME280;23688;33.130;-117.188;2023-04-16T07:34:12;99928.50;;;12.66;100.00
37848;BME280;23688;33.130;-117.188;2023-04-16T07:36:41;99919.00;;;12.68;100.00
37848;BME280;23688;33.130;-117.188;2023-04-16T07:39:08;99923.44;;;12.70;100.00
37848;BME280;23688;33.130;-117.188;2023-04-16T07:41:35;99931.25;;;12.70;100.00
37848;BME280;23688;33.130;-117.188;2023-04-16T07:44:02;99923.44;;;12.70;100.00
37848;BME280;23688;33.130;-117.188;2023-04-16T07:46:30;99917.34;;;12.70;100.00
37848;BME280;23688;33.130;-117.188;2023-04-16T07:49:01;99920.78;;;12.69;100.00
37848;BME280;23688;33.130;-117.188;2023-04-16T07:51:27;99917.53;;;12.74;100.00
37848;BME280;23688;33.130;-117.188;2023-04-16T07:53:53;99915.09;;;12.79;100.00
37848;BME280;23688;33.130;-117.188;2023-04-16T07:56:20;99907.34;;;12.80;100.00
37848;BME280;23688;33.130;-117.188;2023-04-16T07:58:46;99895.91;;;12.77;100.00
37848;BME280;23688;33.130;-117.188;2023-04-16T08:01:13;99901.47;;;12.86;100.00
37848;BME280;23688;33.130;-117.188;2023-04-16T08:03:40;99900.63;;;12.87;100.00
37848;BME280;23688;33.130;-117.188;2023-04-16T08:06:07;99906.03;;;12.92;100.00
37848;BME280;23688;33.130;-117.188;2023-04-16T08:08:33;99901.78;;;12.94;100.00
37848;BME280;23688;33.130;-117.188;2023-04-16T08:10:59;99899.28;;;12.97;100.00
37848;BME280;23688;33.130;-117.188;2023-04-16T08:13:26;99892.19;;;12.93;100.00
37848;BME280;23688;33.130;-117.188;2023-04-16T08:15:52;99893.84;;;12.91;100.00
37848;BME280;23688;33.130;-117.188;2023-04-16T08:18:18;99893.88;;;12.92;100.00
37848;BME280;23688;33.130;-117.188;2023-04-16T08:20:45;99891.41;;;12.95;100.00
37848;BME280;23688;33.130;-117.188;2023-04-16T08:23:11;99889.81;;;12.99;100.00
37848;BME280;23688;33.130;-117.188;2023-04-16T08:25:37;99887.31;;;13.02;100.00
37848;BME280;23688;33.130;-117.188;2023-04-16T08:28:04;99877.81;;;13.04;100.00
37848;BME280;23688;33.130;-117.188;2023-04-16T08:30:30;99882.44;;;13.11;100.00
37848;BME280;23688;33.130;-117.188;2023-04-16T08:32:57;99874.59;;;13.10;100.00
37848;BME280;23688;33.130;-117.188;2023-04-16T08:35:23;99870.25;;;13.10;100.00
37848;BME280;23688;33.130;-117.188;2023-04-16T08:37:49;99866.81;;;13.11;100.00
37848;BME280;23688;33.130;-117.188;2023-04-16T08:40:16;99870.16;;;13.07;100.00
37848;BME280;23688;33.130;-117.188;2023-04-16T08:42:53;99864.34;;;12.92;100.00
37848;BME280;23688;33.130;-117.188;2023-04-16T08:45:20;99869.81;;;12.75;100.00
37848;BME280;23688;33.130;-117.188;2023-04-16T08:47:51;99871.41;;;12.72;100.00
37848;BME280;23688;33.130;-117.188;2023-04-16T08:50:27;99875.06;;;12.77;100.00
37848;BME280;23688;33.130;-117.188;2023-04-16T08:52:59;99863.28;;;12.87;100.00
37848;BME280;23688;33.130;-117.188;2023-04-16T08:55:47;99851.56;;;12.98;100.00
37848;BME280;23688;33.130;-117.188;2023-04-16T08:58:22;99861.66;;;13.13;100.00
37848;BME280;23688;33.130;-117.188;2023-04-16T09:00:54;99851.94;;;13.09;100.00
37848;BME280;23688;33.130;-117.188;2023-04-16T09:03:21;99854.66;;;13.12;100.00
37848;BME280;23688;33.130;-117.188;2023-04-16T09:05:48;99852.28;;;13.18;100.00
37848;BME280;23688;33.130;-117.188;2023-04-16T09:08:16;99833.19;;;13.19;100.00
37848;BME280;23688;33.130;-117.188;2023-04-16T09:10:43;99844.72;;;13.25;100.00
37848;BME280;23688;33.130;-117.188;2023-04-16T09:13:09;99827.09;;;13.18;100.00
37848;BME280;23688;33.130;-117.188;2023-04-16T09:15:38;99841.44;;;13.30;100.00
37848;BME280;23688;33.130;-117.188;2023-04-16T09:18:06;99831.97;;;13.32;100.00
37848;BME280;23688;33.130;-117.188;2023-04-16T09:20:33;99832.94;;;13.35;100.00
37848;BME280;23688;33.130;-117.188;2023-04-16T09:23:00;99831.19;;;13.34;100.00
37848;BME280;23688;33.130;-117.188;2023-04-16T09:25:26;99828.59;;;13.36;100.00
37848;BME280;23688;33.130;-117.188;2023-04-16T09:27:53;99833.22;;;13.43;100.00
37848;BME280;23688;33.130;-117.188;2023-04-16T09:30:23;99826.44;;;13.48;100.00
37848;BME280;23688;33.130;-117.188;2023-04-16T09:32:52;99817.78;;;13.49;100.00
37848;BME280;23688;33.130;-117.188;2023-04-16T09:35:48;99805.38;;;13.42;100.00
37848;BME280;23688;33.130;-117.188;2023-04-16T09:38:15;99814.44;;;13.53;100.00
37848;BME280;23688;33.130;-117.188;2023-04-16T09:40:41;99810.06;;;13.52;100.00
37848;BME280;23688;33.130;-117.188;2023-04-16T09:43:12;99803.97;;;13.52;100.00
37848;BME280;23688;33.130;-117.188;2023-04-16T09:45:52;99805.97;;;13.60;100.00
37848;BME280;23688;33.130;-117.188;2023-04-16T09:48:32;99815.69;;;13.64;100.00
37848;BME280;23688;33.130;-117.188;2023-04-16T09:51:00;99799.09;;;13.62;100.00
37848;BME280;23688;33.130;-117.188;2023-04-16T09:53:28;99808.03;;;13.69;100.00
37848;BME280;23688;33.130;-117.188;2023-04-16T09:55:59;99795.69;;;13.63;100.00
37848;BME280;23688;33.130;-117.188;2023-04-16T09:58:26;99799.31;;;13.68;100.00
37848;BME280;23688;33.130;-117.188;2023-04-16T10:01:10;99793.00;;;13.62;100.00
37848;BME280;23688;33.130;-117.188;2023-04-16T10:03:38;99795.69;;;13.63;100.00
37848;BME280;23688;33.130;-117.188;2023-04-16T10:06:15;99794.75;;;13.63;100.00
37848;BME280;23688;33.130;-117.188;2023-04-16T10:08:54;99795.53;;;13.60;100.00
37848;BME280;23688;33.130;-117.188;2023-04-16T10:11:23;99796.47;;;13.61;100.00
37848;BME280;23688;33.130;-117.188;2023-04-16T10:13:50;99800.72;;;13.59;100.00
37848;BME280;23688;33.130;-117.188;2023-04-16T10:16:17;99799.41;;;13.46;100.00
37848;BME280;23688;33.130;-117.188;2023-04-16T10:18:44;99796.78;;;13.46;100.00
37848;BME280;23688;33.130;-117.188;2023-04-16T10:21:11;99795.03;;;13.45;100.00
37848;BME280;23688;33.130;-117.188;2023-04-16T10:23:39;99805.56;;;13.48;100.00
37848;BME280;23688;33.130;-117.188;2023-04-16T10:26:06;99793.47;;;13.50;100.00
37848;BME280;23688;33.130;-117.188;2023-04-16T10:28:32;99792.66;;;13.51;100.00
37848;BME280;23688;33.130;-117.188;2023-04-16T10:31:05;99784.66;;;13.46;100.00
37848;BME280;23688;33.130;-117.188;2023-04-16T10:33:39;99788.94;;;13.44;100.00
37848;BME280;23688;33.130;-117.188;2023-04-16T10:36:15;99787.03;;;13.40;100.00
37848;BME280;23688;33.130;-117.188;2023-04-16T10:38:46;99781.84;;;13.40;100.00
37848;BME280;23688;33.130;-117.188;2023-04-16T10:41:13;99782.84;;;13.44;100.00
37848;BME280;23688;33.130;-117.188;2023-04-16T10:43:44;99794.06;;;13.41;100.00
37848;BME280;23688;33.130;-117.188;2023-04-16T10:46:20;99791.16;;;13.34;100.00
37848;BME280;23688;33.130;-117.188;2023-04-16T10:48:50;99793.81;;;13.35;100.00
37848;BME280;23688;33.130;-117.188;2023-04-16T10:51:32;99798.84;;;13.29;100.00
37848;BME280;23688;33.130;-117.188;2023-04-16T10:54:31;99796.03;;;13.24;100.00
37848;BME280;23688;33.130;-117.188;2023-04-16T10:57:03;99793.19;;;13.18;100.00
37848;BME280;23688;33.130;-117.188;2023-04-16T10:59:34;99797.63;;;13.21;100.00
37848;BME280;23688;33.130;-117.188;2023-04-16T11:02:12;99807.47;;;13.28;100.00
37848;BME280;23688;33.130;-117.188;2023-04-16T11:04:41;99802.03;;;13.22;100.00
37848;BME280;23688;33.130;-117.188;2023-04-16T11:12:14;99803.16;;;12.35;100.00
37848;BME280;23688;33.130;-117.188;2023-04-16T11:14:41;99793.03;;;11.99;100.00
37848;BME280;23688;33.130;-117.188;2023-04-16T11:17:08;99811.59;;;12.07;100.00
37848;BME280;23688;33.130;-117.188;2023-04-16T11:19:35;99810.69;;;12.07;100.00
37848;BME280;23688;33.130;-117.188;2023-04-16T11:22:03;99818.81;;;12.14;100.00
37848;BME280;23688;33.130;-117.188;2023-04-16T11:24:33;99824.78;;;11.91;100.00
37848;BME280;23688;33.130;-117.188;2023-04-16T11:27:03;99827.06;;;11.83;100.00
37848;BME280;23688;33.130;-117.188;2023-04-16T11:29:29;99815.63;;;11.79;100.00
37848;BME280;23688;33.130;-117.188;2023-04-16T11:31:56;99817.94;;;11.93;100.00
37848;BME280;23688;33.130;-117.188;2023-04-16T11:34:22;99818.56;;;11.87;100.00
37848;BME280;23688;33.130;-117.188;2023-04-16T11:36:50;99821.69;;;11.80;100.00
37848;BME280;23688;33.130;-117.188;2023-04-16T11:39:17;99825.56;;;11.88;100.00
37848;BME280;23688;33.130;-117.188;2023-04-16T11:41:44;99827.72;;;11.98;100.00
37848;BME280;23688;33.130;-117.188;2023-04-16T11:44:22;99813.44;;;11.89;100.00
37848;BME280;23688;33.130;-117.188;2023-04-16T11:46:49;99821.78;;;11.82;100.00
37848;BME280;23688;33.130;-117.188;2023-04-16T11:49:16;99811.50;;;12.06;100.00
37848;BME280;23688;33.130;-117.188;2023-04-16T11:51:44;99833.09;;;12.03;100.00
37848;BME280;23688;33.130;-117.188;2023-04-16T11:54:23;99839.38;;;11.87;100.00
37848;BME280;23688;33.130;-117.188;2023-04-16T11:56:51;99838.91;;;12.18;100.00
37848;BME280;23688;33.130;-117.188;2023-04-16T11:59:22;99842.75;;;12.27;100.00
37848;BME280;23688;33.130;-117.188;2023-04-16T12:01:50;99847.78;;;12.24;100.00
37848;BME280;23688;33.130;-117.188;2023-04-16T12:04:19;99846.03;;;12.23;100.00
37848;BME280;23688;33.130;-117.188;2023-04-16T12:07:18;99857.13;;;12.18;100.00
37848;BME280;23688;33.130;-117.188;2023-04-16T12:09:39;99853.16;;;12.06;100.00
37848;BME280;23688;33.130;-117.188;2023-04-16T12:12:28;99859.03;;;12.23;100.00
37848;BME280;23688;33.130;-117.188;2023-04-16T12:14:55;99868.63;;;12.24;100.00
37848;BME280;23688;33.130;-117.188;2023-04-16T12:17:24;99861.44;;;12.39;100.00
37848;BME280;23688;33.130;-117.188;2023-04-16T12:19:59;99862.94;;;12.55;100.00
37848;BME280;23688;33.130;-117.188;2023-04-16T12:22:30;99870.94;;;12.59;100.00
37848;BME280;23688;33.130;-117.188;2023-04-16T12:24:58;99876.31;;;12.64;100.00
37848;BME280;23688;33.130;-117.188;2023-04-16T12:27:24;99873.81;;;12.67;100.00
37848;BME280;23688;33.130;-117.188;2023-04-16T12:30:06;99866.88;;;12.68;100.00
37848;BME280;23688;33.130;-117.188;2023-04-16T12:32:35;99861.88;;;12.50;100.00